Indianapolis International Airport
KIND : rendu visible

Aérodrome :











RETROUVEZ-NOUS SUR...

 
LOGIN :

S'inscrire | Disclaimer

   EN    FR    IT 

 









Légende :    VFR   VFR Marginal   IFR   IFR Intensif   IFR Très Intensif
Visi : 
Plafond : 
>= 8 km
>= 3000ft
5 à 8 km
1000 à 3000 ft
1500m à 5 km
500 à 1000 ft
800 à 1500m
200 à 500 ft
< 800m
< 200 ft
Symboles :   Orages  Brouillard  Fortes neiges  Fortes précipitations  Vent > 20 kt






- Altitude de l'aérodrome : 797 ft
- Code IATA : IND


KIND - Indianapolis International

DERNIER METAR :
  • 010454Z 34007KT 6SM -RA BR BKN008 OVC012 05/04 A2997 RMK AO2 RAB0357 SLP153 P0000 T00500039 400610033

METARs EXPIRÉS :
  • 010435Z 34005KT 10SM -RA BKN012 OVC018 05/04 A2997 RMK AO2 RAB0357 P0000 T00500039
  • 010354Z 33005KT 10SM OVC018 05/03 A2997 RMK AO2 RAB15E45 SLP153 P0000 T00500033
  • 010254Z 34008KT 10SM BKN015 OVC032 05/03 A2996 RMK AO2 SLP149 60000 T00500033 50004
  • 010154Z 34009KT 10SM BKN015 OVC040 05/03 A2996 RMK AO2 RAB25E40 SLP150 P0000 T00500033

TAF KIND
Valide du 01 à 02h jusqu'au 02 à 06h UTC


010206Z 0102/0206 34009KT P6SM VCSH BKN015 OVC040
FM010600 34005KT P6SM OVC045
FM010800 34005KT P6SM OVC014
FM011700 VRB03KT P6SM SCT022



MET'MAP, la Météo Aéronautique d'un coup d'oeil ! - Copyright ORBIFLY Décembre 2007 - Disclaimer

ORBIFLY MET'MAP TEAM :

Programmation & Développement : Alexandra Zaïnal
Sur une idée originale de : Baudouin d'Aumeries
Assistance à la programmation : Marc-Olivier Méhu
Soutien technique & logistique : Manuel Goepfert

Contact : metmap@orbifly.com




SOURCES & CREDITS :

   NOAA       Earth
Advisory